Time;durP1;ratioP1;P1;durP2;ratioP2;P2;SDS_P1;SDS_P2;PMS_P1;PMS_P2;Temp;Humidity;BMP_temperature;BMP_pressure;BME280_temperature;BME280_humidity;BME280_pressure;Samples;Min_cycle;Max_cycle;Signal;HPM_P1;HPM_P2
2022/11/27 00:02:03;;;;;;;0.10;0.10;;;6.60;99.90;;;;;;5047621;28;20527;-75
2022/11/27 00:04:28;;;;;;;0.13;0.13;;;6.60;99.90;;;;;;5020857;28;20071;-74
2022/11/27 00:06:54;;;;;;;0.20;0.20;;;6.60;99.90;;;;;;5030891;28;20044;-75
2022/11/27 00:09:19;;;;;;;0.10;0.10;;;6.60;99.90;;;;;;5049764;28;20086;-74
2022/11/27 00:11:45;;;;;;;0.20;0.20;;;6.50;99.90;;;;;;5046414;28;20090;-74
2022/11/27 00:14:13;;;;;;;0.10;0.10;;;6.50;99.90;;;;;;5042876;28;20408;-75
2022/11/27 00:16:38;;;;;;;0.15;0.15;;;6.50;99.90;;;;;;5047091;28;20484;-75
2022/11/27 00:19:04;;;;;;;0.20;0.20;;;6.50;99.90;;;;;;5031100;28;20033;-74
2022/11/27 00:21:32;;;;;;;0.10;0.10;;;6.50;99.90;;;;;;5048547;28;20036;-74
2022/11/27 00:24:00;;;;;;;0.20;0.20;;;6.50;99.90;;;;;;5024737;28;20036;-74
2022/11/27 00:26:26;;;;;;;0.20;0.20;;;6.50;99.90;;;;;;5042643;28;20044;-74
2022/11/27 00:28:52;;;;;;;0.10;0.10;;;6.70;99.90;;;;;;5041373;28;20059;-74
2022/11/27 00:31:21;;;;;;;0.20;0.20;;;6.40;99.90;;;;;;5048854;28;21389;-74
2022/11/27 00:33:47;;;;;;;0.10;0.10;;;6.40;99.90;;;;;;5031109;28;20071;-75
2022/11/27 00:36:14;;;;;;;0.20;0.20;;;6.40;99.90;;;;;;5026649;28;20481;-75
2022/11/27 00:38:39;;;;;;;0.10;0.10;;;6.40;99.90;;;;;;5030079;28;20128;-74
2022/11/27 00:41:15;;;;;;;0.20;0.20;;;6.40;99.90;;;;;;5039775;28;20128;-75
2022/11/27 00:43:41;;;;;;;0.20;0.20;;;6.40;99.90;;;;;;5045646;28;20091;-75
2022/11/27 00:46:07;;;;;;;0.20;0.20;;;6.30;99.90;;;;;;5030955;28;20064;-74
2022/11/27 00:48:33;;;;;;;0.20;0.20;;;6.30;99.90;;;;;;5047051;28;20404;-74
2022/11/27 00:51:07;;;;;;;0.20;0.20;;;6.30;99.90;;;;;;5045732;28;20119;-75
2022/11/27 00:53:33;;;;;;;0.20;0.20;;;6.30;99.90;;;;;;5039138;28;20455;-74
2022/11/27 00:55:59;;;;;;;0.20;0.20;;;6.30;99.90;;;;;;5030463;28;20128;-74
2022/11/27 00:58:26;;;;;;;0.10;0.10;;;6.30;99.90;;;;;;5044964;28;20095;-74
2022/11/27 01:00:56;;;;;;;0.10;0.10;;;6.30;99.90;;;;;;5027929;28;20033;-75
2022/11/27 01:03:22;;;;;;;0.10;0.10;;;6.30;99.90;;;;;;5026970;28;20045;-75
2022/11/27 01:05:48;;;;;;;0.30;0.30;;;6.20;99.90;;;;;;5026860;28;20035;-74
2022/11/27 01:08:13;;;;;;;0.20;0.20;;;6.20;99.90;;;;;;5023562;28;20045;-75
2022/11/27 01:10:39;;;;;;;0.10;0.10;;;6.20;99.90;;;;;;5045005;28;20041;-74
2022/11/27 01:13:04;;;;;;;0.20;0.20;;;6.20;99.90;;;;;;5044659;28;20124;-74
2022/11/27 01:15:30;;;;;;;0.10;0.10;;;6.20;99.90;;;;;;5046663;28;20429;-75
2022/11/27 01:17:56;;;;;;;0.10;0.10;;;6.80;99.90;;;;;;5026535;28;20091;-75
2022/11/27 01:20:21;;;;;;;0.17;0.17;;;6.20;99.90;;;;;;5046299;28;20095;-75
2022/11/27 01:22:47;;;;;;;0.13;0.13;;;6.20;99.90;;;;;;5028922;28;20067;-75
2022/11/27 01:25:13;;;;;;;0.10;0.10;;;6.20;99.90;;;;;;5023107;28;20044;-74
2022/11/27 01:27:38;;;;;;;0.10;0.10;;;6.20;99.90;;;;;;5029020;28;20045;-74
2022/11/27 01:30:04;;;;;;;0.20;0.20;;;6.20;99.90;;;;;;5037123;28;20102;-74
2022/11/27 01:32:30;;;;;;;0.20;0.20;;;6.10;99.90;;;;;;5042510;28;20052;-75
2022/11/27 01:34:55;;;;;;;0.10;0.10;;;6.10;99.90;;;;;;5027749;28;20564;-75
2022/11/27 01:37:21;;;;;;;0.10;0.10;;;6.10;99.90;;;;;;5048100;28;20040;-74
2022/11/27 01:39:47;;;;;;;0.15;0.15;;;6.10;99.90;;;;;;5039595;28;20045;-75
2022/11/27 01:42:13;;;;;;;0.10;0.10;;;6.10;99.90;;;;;;5028283;28;20040;-75
2022/11/27 01:44:48;;;;;;;0.20;0.20;;;6.10;99.90;;;;;;5029406;28;20044;-74
2022/11/27 01:47:24;;;;;;;0.20;0.20;;;6.10;99.90;;;;;;5029322;28;20052;-74
2022/11/27 01:49:53;;;;;;;0.20;0.20;;;6.10;99.90;;;;;;5044421;28;20090;-74
2022/11/27 01:52:25;;;;;;;0.20;0.20;;;6.00;99.90;;;;;;5027733;28;20037;-74
2022/11/27 01:55:00;;;;;;;0.20;0.20;;;6.00;99.90;;;;;;5027966;28;20591;-75
2022/11/27 01:57:35;;;;;;;0.20;0.20;;;6.00;99.90;;;;;;5039939;28;20045;-74
2022/11/27 02:00:02;;;;;;;0.15;0.15;;;6.00;99.90;;;;;;5026135;28;20480;-75
2022/11/27 02:02:29;;;;;;;0.20;0.20;;;6.00;99.90;;;;;;5039896;28;20087;-75
2022/11/27 02:04:54;;;;;;;0.10;0.10;;;6.00;99.90;;;;;;5029396;28;20404;-74
2022/11/27 02:07:20;;;;;;;0.13;0.13;;;6.00;99.90;;;;;;5027672;28;20140;-75
2022/11/27 02:09:46;;;;;;;0.20;0.20;;;6.00;99.90;;;;;;5047347;28;20076;-75
2022/11/27 02:12:15;;;;;;;0.20;0.20;;;6.00;99.90;;;;;;5045333;28;20044;-74
2022/11/27 02:14:53;;;;;;;0.20;0.20;;;6.00;99.90;;;;;;5047029;28;20049;-74
2022/11/27 02:17:47;;;;;;;0.20;0.20;;;6.00;99.90;;;;;;5045860;28;20404;-74
2022/11/27 02:20:47;;;;;;;0.20;0.20;;;6.00;99.90;;;;;;5028350;28;20148;-74
2022/11/27 02:23:18;;;;;;;0.15;0.15;;;6.00;99.90;;;;;;5027081;28;20045;-74
2022/11/27 02:26:02;;;;;;;;;;;6.00;99.90;;;;;;5047607;28;20075;-74
2022/11/27 02:28:59;;;;;;;0.10;0.10;;;6.00;99.90;;;;;;5024376;28;19963;-74
2022/11/27 02:31:38;;;;;;;0.10;0.10;;;6.00;99.90;;;;;;5046727;28;20057;-75
2022/11/27 02:34:24;;;;;;;0.20;0.20;;;6.00;99.90;;;;;;5047588;28;20546;-74
2022/11/27 02:37:05;;;;;;;0.10;0.10;;;6.00;99.90;;;;;;5045784;28;20136;-74
2022/11/27 02:39:41;;;;;;;0.20;0.20;;;6.00;99.90;;;;;;5049440;28;20795;-75
2022/11/27 02:42:19;;;;;;;0.20;0.20;;;6.10;99.90;;;;;;5048133;28;20037;-75
2022/11/27 02:45:20;;;;;;;0.17;0.17;;;6.00;99.90;;;;;;5045227;28;20094;-75
2022/11/27 02:47:47;;;;;;;0.20;0.20;;;6.00;99.90;;;;;;5039087;28;20080;-74
2022/11/27 02:50:18;;;;;;;0.20;0.20;;;6.00;99.90;;;;;;5047227;28;20108;-73
2022/11/27 02:52:45;;;;;;;0.15;0.15;;;6.00;99.90;;;;;;5045447;28;20060;-73
2022/11/27 02:55:15;;;;;;;0.13;0.13;;;6.00;99.90;;;;;;5051297;28;20148;-73
2022/11/27 02:57:43;;;;;;;0.10;0.10;;;6.00;99.90;;;;;;5028121;28;20128;-73
2022/11/27 03:00:10;;;;;;;0.20;0.20;;;6.00;99.90;;;;;;5050956;28;20045;-73
2022/11/27 03:02:42;;;;;;;0.20;0.20;;;6.00;99.90;;;;;;5049372;28;20056;-72
2022/11/27 03:05:11;;;;;;;0.10;0.10;;;6.00;99.90;;;;;;5047826;28;20582;-73
2022/11/27 03:07:50;;;;;;;0.10;0.10;;;6.10;99.90;;;;;;5049011;28;20045;-74
2022/11/27 03:10:30;;;;;;;0.20;0.20;;;6.10;99.90;;;;;;5029468;28;20565;-74
2022/11/27 03:12:57;;;;;;;0.13;0.13;;;6.50;99.90;;;;;;5045492;28;20045;-73
2022/11/27 03:15:24;;;;;;;0.20;0.20;;;6.10;99.90;;;;;;5026961;28;20044;-74
2022/11/27 03:17:55;;;;;;;0.20;0.20;;;6.10;99.90;;;;;;5046342;28;20551;-74
2022/11/27 03:20:31;;;;;;;0.15;0.15;;;6.20;99.90;;;;;;5027932;28;20044;-74
2022/11/27 03:22:57;;;;;;;0.20;0.20;;;6.10;99.90;;;;;;5022357;28;20038;-73
2022/11/27 03:25:24;;;;;;;0.20;0.20;;;6.20;99.90;;;;;;5030156;28;20065;-73
2022/11/27 03:27:57;;;;;;;0.10;0.10;;;6.20;99.90;;;;;;5029817;28;20063;-73
2022/11/27 03:30:23;;;;;;;0.20;0.20;;;6.20;99.90;;;;;;5049547;28;20484;-73
2022/11/27 03:32:49;;;;;;;0.13;0.13;;;6.20;99.90;;;;;;5030294;28;20045;-73
2022/11/27 03:35:18;;;;;;;0.10;0.10;;;6.20;99.90;;;;;;5029335;28;20051;-74
2022/11/27 03:37:44;;;;;;;0.20;0.20;;;6.20;99.90;;;;;;5044281;28;20045;-73
2022/11/27 03:40:11;;;;;;;0.10;0.10;;;6.20;99.90;;;;;;5048445;28;20037;-74
2022/11/27 03:42:45;;;;;;;0.10;0.10;;;6.30;99.90;;;;;;5047946;28;20037;-74
2022/11/27 03:45:33;;;;;;;0.10;0.10;;;6.20;99.90;;;;;;5031341;28;20041;-74
2022/11/27 03:48:07;;;;;;;0.20;0.20;;;6.30;99.90;;;;;;5028148;28;20041;-73
2022/11/27 03:50:48;;;;;;;0.20;0.20;;;6.20;99.90;;;;;;5027287;28;20136;-74
2022/11/27 03:53:56;;;;;;;0.20;0.20;;;6.30;99.90;;;;;;5028175;28;20451;-73
2022/11/27 03:56:42;;;;;;;0.15;0.15;;;6.30;99.90;;;;;;5029326;28;20202;-73
2022/11/27 03:59:40;;;;;;;0.20;0.20;;;6.20;99.90;;;;;;5025170;28;20036;-73
2022/11/27 04:02:14;;;;;;;0.10;0.10;;;6.30;99.90;;;;;;5013521;28;20140;-73
2022/11/27 04:04:39;;;;;;;0.10;0.10;;;6.30;99.90;;;;;;5030143;28;20044;-73
2022/11/27 04:07:05;;;;;;;0.20;0.20;;;6.30;99.90;;;;;;5028570;28;20029;-73
2022/11/27 04:09:30;;;;;;;0.10;0.10;;;6.30;99.90;;;;;;5032255;28;20086;-73
2022/11/27 04:11:56;;;;;;;0.10;0.10;;;6.30;99.90;;;;;;5029161;28;20111;-73
2022/11/27 04:14:22;;;;;;;0.17;0.17;;;6.30;99.90;;;;;;5029844;28;20067;-74
2022/11/27 04:16:47;;;;;;;0.10;0.10;;;6.30;99.90;;;;;;5029282;28;20041;-73
2022/11/27 04:19:13;;;;;;;0.17;0.17;;;6.30;99.90;;;;;;5030223;28;20053;-73
2022/11/27 04:21:38;;;;;;;0.10;0.10;;;6.20;99.90;;;;;;5029957;28;20045;-73
2022/11/27 04:24:04;;;;;;;0.13;0.13;;;6.20;99.90;;;;;;5048654;28;20045;-76
2022/11/27 04:26:30;;;;;;;0.10;0.10;;;6.20;99.90;;;;;;5045526;28;20179;-73
2022/11/27 04:28:55;;;;;;;0.15;0.15;;;6.20;99.90;;;;;;5023271;28;20065;-73
2022/11/27 04:31:21;;;;;;;0.20;0.20;;;6.10;99.90;;;;;;5030214;28;20488;-73
2022/11/27 04:33:46;;;;;;;0.15;0.15;;;6.10;99.90;;;;;;5047957;28;20044;-73
2022/11/27 04:36:12;;;;;;;0.15;0.15;;;6.10;99.90;;;;;;5044949;28;20037;-74
2022/11/27 04:38:38;;;;;;;0.10;0.10;;;6.10;99.90;;;;;;5047878;28;20036;-75
2022/11/27 04:41:03;;;;;;;0.20;0.20;;;6.10;99.90;;;;;;5031749;28;20523;-74
2022/11/27 04:43:29;;;;;;;0.20;0.20;;;6.10;99.90;;;;;;5046479;28;20044;-73
2022/11/27 04:45:55;;;;;;;0.20;0.20;;;6.10;99.90;;;;;;5031319;28;20122;-73
2022/11/27 04:48:20;;;;;;;0.20;0.20;;;6.10;99.90;;;;;;5029464;28;20077;-74
2022/11/27 04:50:46;;;;;;;0.20;0.20;;;6.10;99.90;;;;;;5030104;28;20043;-73
2022/11/27 04:53:11;;;;;;;0.17;0.17;;;6.10;99.90;;;;;;5047250;28;20040;-74
2022/11/27 04:55:37;;;;;;;0.10;0.10;;;6.00;99.90;;;;;;5045537;28;20069;-74
2022/11/27 04:58:03;;;;;;;0.10;0.10;;;6.00;99.90;;;;;;5047377;28;20800;-73
2022/11/27 05:00:28;;;;;;;0.17;0.17;;;6.00;99.90;;;;;;5048438;28;20447;-73
2022/11/27 05:02:54;;;;;;;0.20;0.20;;;5.90;99.90;;;;;;5027318;28;20063;-73
2022/11/27 05:05:19;;;;;;;0.20;0.20;;;6.00;99.90;;;;;;5048224;28;20495;-73
2022/11/27 05:07:45;;;;;;;0.20;0.20;;;6.00;99.90;;;;;;5045285;28;20040;-73
2022/11/27 05:10:11;;;;;;;0.15;0.15;;;6.30;99.90;;;;;;5047816;28;20094;-73
2022/11/27 05:12:37;;;;;;;0.17;0.17;;;6.00;99.90;;;;;;5047501;28;20095;-75
2022/11/27 05:15:03;;;;;;;0.20;0.20;;;6.00;99.90;;;;;;5047178;28;20547;-73
2022/11/27 05:17:28;;;;;;;0.10;0.10;;;5.90;99.90;;;;;;5047216;28;20043;-73
2022/11/27 05:19:54;;;;;;;0.20;0.20;;;5.90;99.90;;;;;;5029404;28;20132;-73
2022/11/27 05:22:19;;;;;;;0.20;0.20;;;5.90;99.90;;;;;;5027940;28;20102;-73
2022/11/27 05:24:45;;;;;;;0.13;0.13;;;5.90;99.90;;;;;;5028405;28;20076;-73
2022/11/27 05:27:11;;;;;;;0.20;0.20;;;6.20;99.90;;;;;;5045301;28;20048;-73
2022/11/27 05:29:38;;;;;;;0.17;0.17;;;5.90;99.90;;;;;;5047429;28;20041;-74
2022/11/27 05:32:03;;;;;;;0.20;0.20;;;5.90;99.90;;;;;;5045728;28;20053;-74
2022/11/27 05:34:29;;;;;;;0.10;0.10;;;5.90;99.90;;;;;;5044856;28;20490;-74
2022/11/27 05:36:55;;;;;;;0.15;0.15;;;5.90;99.90;;;;;;5029120;28;20467;-75
2022/11/27 05:39:23;;;;;;;0.13;0.13;;;5.90;99.90;;;;;;5020117;28;20068;-74
2022/11/27 05:41:49;;;;;;;0.15;0.15;;;5.80;99.90;;;;;;5047038;28;20076;-74
2022/11/27 05:44:15;;;;;;;0.20;0.20;;;5.80;99.90;;;;;;5022412;28;20103;-73
2022/11/27 05:46:42;;;;;;;0.10;0.10;;;5.80;99.90;;;;;;5029357;28;20045;-73
2022/11/27 05:49:13;;;;;;;0.13;0.13;;;5.80;99.90;;;;;;5029598;28;20048;-74
2022/11/27 05:51:39;;;;;;;0.20;0.20;;;5.80;99.90;;;;;;5046845;28;20057;-74
2022/11/27 05:54:05;;;;;;;0.17;0.17;;;5.80;99.90;;;;;;5029835;28;20041;-74
2022/11/27 05:56:31;;;;;;;0.10;0.10;;;5.70;99.90;;;;;;5043547;28;20453;-74
2022/11/27 05:58:56;;;;;;;0.10;0.10;;;5.70;99.90;;;;;;5046056;28;20041;-74
2022/11/27 06:01:22;;;;;;;0.20;0.20;;;5.60;99.90;;;;;;5043922;28;20033;-74
2022/11/27 06:03:48;;;;;;;0.15;0.15;;;5.70;99.90;;;;;;5026204;28;20059;-74
2022/11/27 06:06:17;;;;;;;0.20;0.20;;;5.70;99.90;;;;;;5029679;28;20036;-73
2022/11/27 06:08:46;;;;;;;0.20;0.20;;;5.90;99.90;;;;;;5046678;28;20084;-74
2022/11/27 06:11:16;;;;;;;0.20;0.20;;;5.70;99.90;;;;;;5047117;28;20097;-74
2022/11/27 06:13:42;;;;;;;0.20;0.20;;;5.70;99.90;;;;;;5047176;28;20048;-74
2022/11/27 06:16:12;;;;;;;0.20;0.20;;;5.70;99.90;;;;;;5046689;28;20132;-74
2022/11/27 06:18:38;;;;;;;0.15;0.15;;;5.70;99.90;;;;;;5026536;28;20041;-72
2022/11/27 06:21:09;;;;;;;0.20;0.20;;;5.70;99.90;;;;;;5026611;28;20430;-72
2022/11/27 06:23:35;;;;;;;0.10;0.10;;;5.60;99.90;;;;;;5042400;28;20107;-72
2022/11/27 06:26:15;;;;;;;0.20;0.20;;;5.70;99.90;;;;;;5044332;28;20447;-72
2022/11/27 06:28:41;;;;;;;0.13;0.13;;;5.70;99.90;;;;;;5026020;28;20432;-72
2022/11/27 06:31:10;;;;;;;0.20;0.20;;;5.70;99.90;;;;;;5030475;28;20122;-72
2022/11/27 06:33:36;;;;;;;0.20;0.20;;;5.60;99.90;;;;;;5048219;28;20049;-72
2022/11/27 06:36:03;;;;;;;0.20;0.20;;;5.30;99.90;;;;;;5046350;28;20124;-72
2022/11/27 06:38:30;;;;;;;0.20;0.20;;;5.70;99.90;;;;;;5030176;28;20045;-73
2022/11/27 06:41:05;;;;;;;0.20;0.20;;;5.60;99.90;;;;;;5046421;28;20079;-72
2022/11/27 06:43:31;;;;;;;0.15;0.15;;;5.60;99.90;;;;;;5040786;28;20593;-73
2022/11/27 06:45:58;;;;;;;0.20;0.20;;;5.60;99.90;;;;;;5046852;28;20041;-72
2022/11/27 06:48:23;;;;;;;0.20;0.20;;;5.60;99.90;;;;;;5040944;28;20515;-72
2022/11/27 06:50:49;;;;;;;0.20;0.20;;;5.60;99.90;;;;;;5048134;28;20037;-72
2022/11/27 06:53:15;;;;;;;0.15;0.15;;;5.70;99.90;;;;;;5046941;28;20056;-72
2022/11/27 06:55:40;;;;;;;0.10;0.10;;;5.70;99.90;;;;;;5027070;28;20044;-73
2022/11/27 06:58:06;;;;;;;0.13;0.13;;;5.70;99.90;;;;;;5040340;28;20049;-72
2022/11/27 07:00:32;;;;;;;0.15;0.15;;;5.70;99.90;;;;;;5048172;28;20456;-72
2022/11/27 07:02:57;;;;;;;0.10;0.10;;;5.80;99.90;;;;;;5028999;28;20045;-72
2022/11/27 07:05:23;;;;;;;0.20;0.20;;;5.80;99.90;;;;;;5029176;28;20190;-72
2022/11/27 07:07:49;;;;;;;0.20;0.20;;;5.80;99.90;;;;;;5024868;28;20041;-71
2022/11/27 07:10:15;;;;;;;0.10;0.10;;;5.70;99.90;;;;;;5045880;28;20369;-71
2022/11/27 07:12:40;;;;;;;0.20;0.20;;;5.80;99.90;;;;;;5029142;28;20473;-72
2022/11/27 07:15:07;;;;;;;0.20;0.20;;;5.80;99.90;;;;;;5031683;28;20064;-72
2022/11/27 07:17:32;;;;;;;0.20;0.20;;;5.80;99.90;;;;;;5049308;28;20033;-72
2022/11/27 07:19:58;;;;;;;0.20;0.20;;;5.70;99.90;;;;;;5033258;28;20041;-72
2022/11/27 07:22:23;;;;;;;0.20;0.20;;;5.70;99.90;;;;;;5050139;28;20041;-72
2022/11/27 07:24:49;;;;;;;0.20;0.20;;;5.80;99.90;;;;;;5032290;28;20052;-72
2022/11/27 07:27:15;;;;;;;0.20;0.20;;;5.80;99.90;;;;;;5048641;28;20067;-73
2022/11/27 07:29:40;;;;;;;0.20;0.20;;;5.80;99.90;;;;;;5032981;28;20055;-72
2022/11/27 07:32:06;;;;;;;0.13;0.13;;;5.80;99.90;;;;;;5032429;28;20056;-73
2022/11/27 07:34:31;;;;;;;0.10;0.10;;;5.80;99.90;;;;;;5047718;28;20045;-73
2022/11/27 07:36:57;;;;;;;0.10;0.10;;;5.80;99.90;;;;;;5050209;28;20044;-72
2022/11/27 07:39:23;;;;;;;0.20;0.20;;;5.80;99.90;;;;;;5048475;28;20040;-73
2022/11/27 07:41:48;;;;;;;0.10;0.10;;;5.80;99.90;;;;;;5044429;28;20033;-70
2022/11/27 07:44:14;;;;;;;0.20;0.20;;;5.90;99.90;;;;;;5031418;28;20222;-72
2022/11/27 07:46:40;;;;;;;0.20;0.20;;;5.80;99.90;;;;;;5047108;28;20106;-72
2022/11/27 07:49:05;;;;;;;0.20;0.20;;;5.80;99.90;;;;;;5031601;28;20048;-72
2022/11/27 07:51:31;;;;;;;0.10;0.10;;;5.90;99.90;;;;;;5041765;28;20048;-72
2022/11/27 07:53:58;;;;;;;0.20;0.20;;;5.80;99.90;;;;;;5049102;28;20041;-72
2022/11/27 07:56:23;;;;;;;0.10;0.10;;;5.80;99.90;;;;;;5047212;28;20508;-72
2022/11/27 07:58:49;;;;;;;0.20;0.20;;;5.90;99.90;;;;;;5042468;28;20134;-71
2022/11/27 08:01:17;;;;;;;0.20;0.20;;;5.90;99.90;;;;;;5048529;28;20067;-71
2022/11/27 08:03:43;;;;;;;0.10;0.10;;;5.90;99.90;;;;;;5048960;28;20118;-71
2022/11/27 08:06:27;;;;;;;0.15;0.15;;;5.90;99.90;;;;;;5048304;28;20423;-72
2022/11/27 08:08:55;;;;;;;0.13;0.13;;;5.90;99.90;;;;;;5049861;28;20169;-71
2022/11/27 08:11:25;;;;;;;0.13;0.13;;;6.00;99.90;;;;;;5048167;28;20037;-73
2022/11/27 08:13:58;;;;;;;0.20;0.20;;;5.90;99.90;;;;;;5029297;28;20045;-73
2022/11/27 08:16:24;;;;;;;0.20;0.20;;;6.10;99.90;;;;;;5044489;28;20527;-72
2022/11/27 08:18:49;;;;;;;0.10;0.10;;;6.00;99.90;;;;;;5032682;28;20045;-72
2022/11/27 08:21:15;;;;;;;0.20;0.20;;;6.10;99.90;;;;;;5046259;28;20131;-72
2022/11/27 08:23:40;;;;;;;0.20;0.20;;;6.10;99.90;;;;;;5049500;28;20377;-72
2022/11/27 08:26:07;;;;;;;0.10;0.10;;;6.10;99.90;;;;;;5048426;28;20384;-72
2022/11/27 08:28:33;;;;;;;0.17;0.17;;;6.10;99.90;;;;;;5046764;28;20125;-71
2022/11/27 08:31:01;;;;;;;0.17;0.17;;;6.10;99.90;;;;;;5046749;28;20045;-71
2022/11/27 08:33:27;;;;;;;0.20;0.20;;;6.10;99.90;;;;;;5028377;28;20138;-72
2022/11/27 08:35:53;;;;;;;0.20;0.20;;;6.10;99.90;;;;;;5026762;28;20068;-71
2022/11/27 08:38:19;;;;;;;0.15;0.15;;;6.10;99.90;;;;;;5046825;28;20621;-71
2022/11/27 08:40:44;;;;;;;0.20;0.20;;;6.10;99.90;;;;;;5048014;28;20077;-72
2022/11/27 08:43:10;;;;;;;0.13;0.13;;;6.10;99.90;;;;;;5046983;28;20059;-71
2022/11/27 08:45:39;;;;;;;0.20;0.20;;;6.10;99.90;;;;;;5048304;28;20114;-71
2022/11/27 08:48:04;;;;;;;0.10;0.10;;;6.10;99.90;;;;;;5047610;28;20122;-72
2022/11/27 08:50:30;;;;;;;0.20;0.20;;;6.10;99.90;;;;;;5031241;28;20099;-71
2022/11/27 08:52:56;;;;;;;0.10;0.10;;;6.10;99.90;;;;;;5049147;28;20048;-71
2022/11/27 08:55:21;;;;;;;0.17;0.17;;;6.20;99.90;;;;;;5045872;28;20095;-71
2022/11/27 08:57:47;;;;;;;0.20;0.20;;;6.20;99.90;;;;;;5043399;28;20045;-72
2022/11/27 09:00:13;;;;;;;0.20;0.20;;;6.20;99.90;;;;;;5030793;28;20056;-72
2022/11/27 09:02:39;;;;;;;0.10;0.10;;;6.20;99.90;;;;;;5044180;28;20079;-72
2022/11/27 09:05:05;;;;;;;0.20;0.20;;;6.20;99.90;;;;;;5030703;28;20542;-72
2022/11/27 09:07:30;;;;;;;0.20;0.20;;;6.20;99.90;;;;;;5031074;28;20388;-72
2022/11/27 09:09:56;;;;;;;0.20;0.20;;;6.30;99.90;;;;;;5045854;28;20037;-72
2022/11/27 09:12:22;;;;;;;0.10;0.10;;;6.20;99.90;;;;;;5046686;28;20130;-72
2022/11/27 09:14:47;;;;;;;0.20;0.20;;;6.30;99.90;;;;;;5047491;28;20045;-72
2022/11/27 09:17:16;;;;;;;0.20;0.20;;;6.30;99.90;;;;;;5030153;28;20060;-72
2022/11/27 09:19:44;;;;;;;;;;;6.90;99.90;;;;;;5048269;28;20385;-71
2022/11/27 09:22:10;;;;;;;0.20;0.20;;;6.30;99.90;;;;;;5029352;28;19928;-72
2022/11/27 09:24:36;;;;;;;0.20;0.20;;;6.30;99.90;;;;;;5029913;28;20045;-72
2022/11/27 09:27:01;;;;;;;0.20;0.20;;;6.30;99.90;;;;;;5047470;28;20052;-72
2022/11/27 09:29:27;;;;;;;0.20;0.20;;;6.30;99.90;;;;;;5028919;28;20852;-72
2022/11/27 09:31:52;;;;;;;0.20;0.20;;;6.40;99.90;;;;;;5024843;28;20045;-72
2022/11/27 09:34:18;;;;;;;0.10;0.10;;;6.30;99.90;;;;;;5047407;28;20178;-72
2022/11/27 09:36:44;;;;;;;0.20;0.20;;;6.30;99.90;;;;;;5044058;28;20939;-72
2022/11/27 09:39:09;;;;;;;0.20;0.20;;;6.60;99.90;;;;;;5018609;28;20045;-72
2022/11/27 09:41:52;;;;;;;0.10;0.10;;;6.30;99.90;;;;;;5028182;28;20052;-73
2022/11/27 09:44:31;;;;;;;0.20;0.20;;;6.30;99.90;;;;;;5045179;28;20492;-72
2022/11/27 09:47:28;;;;;;;0.20;0.20;;;6.30;99.90;;;;;;5014989;28;20041;-73
2022/11/27 09:50:04;;;;;;;0.15;0.15;;;6.30;99.90;;;;;;5044070;28;20032;-73
2022/11/27 09:53:01;;;;;;;0.20;0.20;;;6.30;99.90;;;;;;5027414;28;20045;-73
2022/11/27 09:55:40;;;;;;;0.10;0.10;;;6.30;99.90;;;;;;4991046;28;20079;-73
2022/11/27 09:58:33;;;;;;;0.10;0.10;;;6.30;99.90;;;;;;5022143;28;20086;-73
2022/11/27 10:00:59;;;;;;;0.20;0.20;;;6.30;99.90;;;;;;5036936;28;20033;-71
2022/11/27 10:03:26;;;;;;;0.20;0.20;;;6.30;99.90;;;;;;5040781;28;20071;-73
2022/11/27 10:06:10;;;;;;;0.20;0.20;;;6.30;99.90;;;;;;5028779;28;20053;-73
2022/11/27 10:08:56;;;;;;;0.20;0.20;;;6.30;99.90;;;;;;5040939;28;20044;-73
2022/11/27 10:11:44;;;;;;;0.20;0.20;;;6.30;99.90;;;;;;5021495;28;20045;-71
2022/11/27 10:14:34;;;;;;;0.10;0.10;;;6.30;99.90;;;;;;5046201;28;20051;-74
2022/11/27 10:17:21;;;;;;;0.20;0.20;;;6.30;99.90;;;;;;5045206;28;20060;-71
2022/11/27 10:20:01;;;;;;;0.20;0.20;;;6.40;99.90;;;;;;5045359;28;20076;-72
2022/11/27 10:22:31;;;;;;;0.20;0.20;;;6.40;99.90;;;;;;5015940;28;20041;-72
2022/11/27 10:25:02;;;;;;;0.20;0.20;;;6.30;99.90;;;;;;5024892;28;20040;-72
2022/11/27 10:27:44;;;;;;;0.20;0.20;;;6.40;99.90;;;;;;5019709;28;20081;-72
2022/11/27 10:30:19;;;;;;;0.10;0.10;;;6.40;99.90;;;;;;5044421;28;20091;-72
2022/11/27 10:32:48;;;;;;;0.10;0.10;;;6.40;99.90;;;;;;5038032;28;20136;-71
2022/11/27 10:35:23;;;;;;;0.13;0.13;;;6.30;99.90;;;;;;5025691;28;20048;-72
2022/11/27 10:37:58;;;;;;;0.20;0.20;;;6.30;99.90;;;;;;5045289;28;20042;-71
2022/11/27 10:40:30;;;;;;;0.20;0.20;;;6.30;99.90;;;;;;5026944;28;20053;-74
2022/11/27 10:43:11;;;;;;;0.20;0.20;;;6.30;99.90;;;;;;5045268;28;20053;-72
2022/11/27 10:45:59;;;;;;;0.15;0.15;;;6.40;99.90;;;;;;5039914;28;20037;-72
2022/11/27 10:48:27;;;;;;;0.10;0.10;;;6.30;99.90;;;;;;5044697;28;20079;-72
2022/11/27 10:50:53;;;;;;;0.20;0.20;;;6.30;99.90;;;;;;5031772;28;20485;-72
2022/11/27 10:53:36;;;;;;;0.10;0.10;;;6.30;99.90;;;;;;5028032;28;20041;-72
2022/11/27 10:56:11;;;;;;;0.10;0.10;;;6.30;99.90;;;;;;5021443;28;20045;-72
2022/11/27 10:58:42;;;;;;;0.10;0.10;;;6.60;99.90;;;;;;5025653;28;20048;-73
2022/11/27 11:01:16;;;;;;;0.20;0.20;;;6.30;99.90;;;;;;5024285;28;20067;-73
2022/11/27 11:03:42;;;;;;;0.10;0.10;;;6.30;99.90;;;;;;5021238;28;20454;-73
2022/11/27 11:06:23;;;;;;;0.15;0.15;;;6.30;99.90;;;;;;5026155;28;20073;-72
2022/11/27 11:09:13;;;;;;;0.20;0.20;;;6.50;99.90;;;;;;5033251;28;20033;-72
2022/11/27 11:11:39;;;;;;;0.10;0.10;;;6.40;99.90;;;;;;5029800;28;20509;-73
2022/11/27 11:14:18;;;;;;;0.20;0.20;;;6.30;99.90;;;;;;5046246;28;20094;-72
2022/11/27 11:16:44;;;;;;;0.15;0.15;;;6.40;99.90;;;;;;5042599;28;20052;-72
2022/11/27 11:19:21;;;;;;;0.10;0.10;;;6.40;99.90;;;;;;5049524;28;20040;-72
2022/11/27 11:21:47;;;;;;;0.10;0.10;;;6.40;99.90;;;;;;5048883;28;20126;-72
2022/11/27 11:24:34;;;;;;;0.10;0.10;;;6.40;99.90;;;;;;5044479;28;20088;-72
2022/11/27 11:27:13;;;;;;;0.20;0.20;;;6.40;99.90;;;;;;5042465;28;20048;-71
2022/11/27 11:29:45;;;;;;;0.10;0.10;;;6.40;99.90;;;;;;5046045;28;20086;-72
2022/11/27 11:32:22;;;;;;;0.20;0.20;;;6.40;99.90;;;;;;5048160;28;20049;-72
2022/11/27 11:34:55;;;;;;;0.20;0.20;;;6.40;99.90;;;;;;5029140;28;20056;-72
2022/11/27 11:37:32;;;;;;;0.13;0.13;;;6.40;99.90;;;;;;5048495;28;20044;-72
2022/11/27 11:40:07;;;;;;;0.20;0.20;;;6.40;99.90;;;;;;5048613;28;20056;-72
2022/11/27 11:42:35;;;;;;;0.13;0.13;;;6.40;99.90;;;;;;5046905;28;20087;-72
2022/11/27 11:45:16;;;;;;;0.10;0.10;;;6.40;99.90;;;;;;5026002;28;20036;-72
2022/11/27 11:48:18;;;;;;;0.10;0.10;;;6.40;99.90;;;;;;5027334;28;20041;-72
2022/11/27 11:50:52;;;;;;;0.20;0.20;;;6.40;99.90;;;;;;5027194;28;20618;-72
2022/11/27 11:53:45;;;;;;;0.20;0.20;;;6.40;99.90;;;;;;5045606;28;20511;-72
2022/11/27 11:56:26;;;;;;;0.20;0.20;;;6.30;99.90;;;;;;5044878;28;20045;-71
2022/11/27 11:59:01;;;;;;;0.20;0.20;;;6.30;99.90;;;;;;5047950;28;20127;-71
2022/11/27 12:01:52;;;;;;;0.20;0.20;;;6.30;99.90;;;;;;5044641;28;20033;-72
2022/11/27 12:05:01;;;;;;;0.10;0.10;;;6.30;99.90;;;;;;5044192;28;20060;-72
2022/11/27 12:07:45;;;;;;;0.10;0.10;;;6.30;99.90;;;;;;5048378;28;20056;-72
2022/11/27 12:10:15;;;;;;;0.20;0.20;;;6.30;99.90;;;;;;5048439;28;20487;-72
2022/11/27 12:13:05;;;;;;;0.20;0.20;;;6.30;99.90;;;;;;5027887;28;20044;-72
2022/11/27 12:16:11;;;;;;;0.20;0.20;;;6.30;99.90;;;;;;5026186;28;20404;-71
2022/11/27 12:18:45;;;;;;;0.20;0.20;;;6.30;99.90;;;;;;4975645;28;20071;-72
2022/11/27 12:21:36;;;;;;;0.10;0.10;;;6.30;99.90;;;;;;5029198;28;20086;-72
2022/11/27 12:24:24;;;;;;;0.20;0.20;;;6.30;99.90;;;;;;5030719;28;20052;-72
2022/11/27 12:27:20;;;;;;;0.10;0.10;;;6.30;99.90;;;;;;4982157;28;20126;-71
2022/11/27 12:30:02;;;;;;;0.10;0.10;;;6.30;99.90;;;;;;5030532;28;20278;-72
2022/11/27 12:32:37;;;;;;;0.10;0.10;;;6.40;99.90;;;;;;5028840;28;20084;-72
2022/11/27 12:35:22;;;;;;;0.20;0.20;;;6.30;99.90;;;;;;5030013;28;20053;-71
2022/11/27 12:38:10;;;;;;;0.20;0.20;;;6.30;99.90;;;;;;5042054;28;20060;-71
2022/11/27 12:40:54;;;;;;;0.10;0.10;;;6.30;99.90;;;;;;5024791;28;20048;-73
2022/11/27 12:43:30;;;;;;;0.20;0.20;;;6.40;99.90;;;;;;5028906;28;20128;-73
2022/11/27 12:46:02;;;;;;;0.10;0.10;;;6.30;99.90;;;;;;5027355;28;20044;-73
2022/11/27 12:48:46;;;;;;;0.20;0.20;;;6.30;99.90;;;;;;5051634;28;20045;-73
2022/11/27 12:51:21;;;;;;;0.20;0.20;;;6.40;99.90;;;;;;5027335;28;20056;-73
2022/11/27 12:54:08;;;;;;;0.20;0.20;;;6.40;99.90;;;;;;5041033;28;20037;-72
2022/11/27 12:56:43;;;;;;;0.10;0.10;;;6.40;99.90;;;;;;5028142;28;20318;-71
2022/11/27 12:59:17;;;;;;;0.10;0.10;;;6.40;99.90;;;;;;5030695;28;20072;-71
2022/11/27 13:02:09;;;;;;;0.10;0.10;;;6.40;99.90;;;;;;5042078;28;20041;-71
2022/11/27 13:04:40;;;;;;;0.10;0.10;;;6.50;99.90;;;;;;5011229;28;20053;-72
2022/11/27 13:07:25;;;;;;;0.10;0.10;;;6.50;99.90;;;;;;5029468;28;20044;-72
2022/11/27 13:10:03;;;;;;;0.20;0.20;;;6.50;99.90;;;;;;5029109;28;20059;-71
2022/11/27 13:12:34;;;;;;;0.10;0.10;;;6.40;99.90;;;;;;5045349;28;20063;-71
2022/11/27 13:15:15;;;;;;;0.10;0.10;;;6.50;99.90;;;;;;5041947;28;20036;-71
2022/11/27 13:17:42;;;;;;;0.10;0.10;;;6.50;99.90;;;;;;5023981;28;20114;-71
2022/11/27 13:20:23;;;;;;;0.20;0.20;;;6.50;99.90;;;;;;5047662;28;20041;-72